createdAt,value
2022-10-18T00:00:06.737Z,101894.00
2022-10-18T00:02:34.857Z,101899.22
2022-10-18T00:05:01.106Z,101899.34
2022-10-18T00:07:27.436Z,101895.06
2022-10-18T00:09:53.995Z,101897.66
2022-10-18T00:12:20.220Z,101887.34
2022-10-18T00:14:49.761Z,101896.84
2022-10-18T00:17:16.503Z,101894.34
2022-10-18T00:19:42.714Z,101897.91
2022-10-18T00:22:08.923Z,101896.06
2022-10-18T00:24:35.571Z,101895.31
2022-10-18T00:27:01.842Z,101878.31
2022-10-18T00:29:28.068Z,101887.66
2022-10-18T00:31:54.606Z,101885.16
2022-10-18T00:34:20.803Z,101869.91
2022-10-18T00:36:47.273Z,101887.87
2022-10-18T00:39:19.151Z,101872.28
2022-10-18T00:41:45.559Z,101877.50
2022-10-18T00:44:11.650Z,101877.66
2022-10-18T00:46:40.222Z,101879.38
2022-10-18T00:49:25.288Z,101877.66
2022-10-18T00:51:57.997Z,101873.28
2022-10-18T00:54:24.514Z,101872.56
2022-10-18T00:56:50.807Z,101860.81
2022-10-18T00:59:18.250Z,101865.03
2022-10-18T01:01:45.191Z,101865.97
2022-10-18T01:04:12.832Z,101871.94
2022-10-18T01:06:49.526Z,101860.03
2022-10-18T01:09:40.246Z,101857.47
2022-10-18T01:12:19.014Z,101866.09
2022-10-18T01:14:54.201Z,101866.09
2022-10-18T01:17:56.216Z,101867.06
2022-10-18T01:20:37.767Z,101856.22
2022-10-18T01:23:33.492Z,101860.47
2022-10-18T01:26:39.487Z,101860.34
2022-10-18T01:29:24.686Z,101854.31
2022-10-18T01:31:59.495Z,101835.44
2022-10-18T01:34:27.607Z,101829.56
2022-10-18T01:36:56.054Z,101842.38
2022-10-18T01:39:25.814Z,101838.06
2022-10-18T01:41:53.473Z,101832.16
2022-10-18T01:44:24.044Z,101833.09
2022-10-18T01:46:52.726Z,101834.06
2022-10-18T01:49:19.280Z,101833.22
2022-10-18T01:51:45.581Z,101830.72
2022-10-18T01:54:14.318Z,101822.69
2022-10-18T01:57:00.458Z,101830.72
2022-10-18T01:59:51.998Z,101815.28
2022-10-18T02:02:27.617Z,101821.16
2022-10-18T02:05:14.617Z,101826.34
2022-10-18T02:08:23.397Z,101823.78
2022-10-18T02:11:19.564Z,101823.00
2022-10-18T02:13:57.665Z,101821.38
2022-10-18T02:16:31.090Z,101817.81
2022-10-18T02:19:07.874Z,101812.44
2022-10-18T02:21:34.725Z,101803.19
2022-10-18T02:24:02.192Z,101811.66
2022-10-18T02:26:28.497Z,101806.66
2022-10-18T02:28:55.195Z,101814.72
2022-10-18T02:31:46.647Z,101819.84
2022-10-18T02:34:36.497Z,101807.84
2022-10-18T02:37:03.294Z,101819.00
2022-10-18T02:39:35.579Z,101809.41
2022-10-18T02:42:06.799Z,101793.31
2022-10-18T02:44:34.207Z,101814.72
2022-10-18T02:47:00.811Z,101820.94
2022-10-18T02:49:27.143Z,101816.75
2022-10-18T02:51:53.649Z,101815.94
2022-10-18T02:54:19.934Z,101796.59
2022-10-18T02:56:46.227Z,101818.69
2022-10-18T02:59:12.788Z,101818.69
2022-10-18T03:01:39.067Z,101824.00
2022-10-18T03:04:05.528Z,101816.97
2022-10-18T03:06:32.674Z,101820.44
2022-10-18T03:08:59.224Z,101817.75
2022-10-18T03:11:25.561Z,101812.63
2022-10-18T03:13:52.114Z,101806.63
2022-10-18T03:16:18.393Z,101818.69
2022-10-18T03:18:44.657Z,101789.63
2022-10-18T03:21:11.177Z,101813.56
2022-10-18T03:23:37.419Z,101816.28
2022-10-18T03:26:04.248Z,101811.00
2022-10-18T03:28:30.823Z,101811.78
2022-10-18T03:31:04.618Z,101809.34
2022-10-18T03:33:32.063Z,101808.59
2022-10-18T03:35:58.347Z,101817.00
2022-10-18T03:38:24.618Z,101808.38
2022-10-18T03:40:51.176Z,101811.94
2022-10-18T03:43:17.420Z,101808.34
2022-10-18T03:45:43.650Z,101808.56
2022-10-18T03:48:10.197Z,101816.28
2022-10-18T03:50:36.425Z,101787.91
2022-10-18T03:53:02.719Z,101805.00
2022-10-18T03:55:29.257Z,101800.63
2022-10-18T03:57:55.492Z,101793.78
2022-10-18T04:00:22.705Z,101799.03
2022-10-18T04:02:52.070Z,101797.28
2022-10-18T04:05:23.750Z,101799.87
2022-10-18T04:07:50.612Z,101776.91
2022-10-18T04:10:16.900Z,101794.00
2022-10-18T04:12:43.116Z,101795.75
2022-10-18T04:15:10.928Z,101797.38
2022-10-18T04:17:37.194Z,101796.72
2022-10-18T04:20:03.570Z,101802.06
2022-10-18T04:22:30.106Z,101800.38
2022-10-18T04:24:56.934Z,101797.88
2022-10-18T04:27:23.297Z,101792.78
2022-10-18T04:29:49.808Z,101784.38
2022-10-18T04:32:16.068Z,101801.56
2022-10-18T04:37:09.731Z,101790.38
2022-10-18T04:39:35.999Z,101792.19
2022-10-18T04:42:02.311Z,101790.44
2022-10-18T04:44:28.830Z,101794.00
2022-10-18T04:46:55.063Z,101774.47
2022-10-18T04:49:21.293Z,101792.56
2022-10-18T04:51:47.810Z,101769.63
2022-10-18T04:54:14.082Z,101792.03
2022-10-18T04:56:40.318Z,101785.84
2022-10-18T04:59:06.828Z,101785.13
2022-10-18T05:01:33.114Z,101779.06
2022-10-18T05:03:59.404Z,101759.69
2022-10-18T05:06:25.986Z,101788.91
2022-10-18T05:08:52.229Z,101790.53
2022-10-18T05:11:18.482Z,101784.56
2022-10-18T05:13:47.250Z,101762.41
2022-10-18T05:16:16.352Z,101757.38
2022-10-18T05:18:43.215Z,101784.69
2022-10-18T05:21:09.919Z,101764.12
2022-10-18T05:23:36.189Z,101780.25
2022-10-18T05:26:04.591Z,101774.31
2022-10-18T05:28:39.109Z,101775.13
2022-10-18T05:31:08.645Z,101754.56
2022-10-18T05:33:35.443Z,101774.16
2022-10-18T05:36:01.891Z,101774.81
2022-10-18T05:38:30.922Z,101769.50
2022-10-18T05:40:58.390Z,101778.78
2022-10-18T05:43:28.831Z,101784.06
2022-10-18T05:45:55.381Z,101783.16
2022-10-18T05:48:21.907Z,101782.19
2022-10-18T05:50:48.127Z,101766.81
2022-10-18T05:53:35.149Z,101781.12
2022-10-18T05:56:01.846Z,101762.37
2022-10-18T05:58:28.120Z,101776.84
2022-10-18T06:00:54.378Z,101795.59
2022-10-18T06:03:20.896Z,101790.34
2022-10-18T06:05:47.164Z,101780.97
2022-10-18T06:08:13.624Z,101791.06
2022-10-18T06:10:40.453Z,101787.56
2022-10-18T06:13:06.748Z,101777.03
2022-10-18T06:15:33.107Z,101796.50
2022-10-18T06:18:08.743Z,101790.91
2022-10-18T06:20:34.977Z,101795.91
2022-10-18T06:23:01.557Z,101798.28
2022-10-18T06:25:27.798Z,101797.00
2022-10-18T06:27:54.428Z,101798.31
2022-10-18T06:30:20.993Z,101785.16
2022-10-18T06:32:54.566Z,101771.00
2022-10-18T06:35:21.275Z,101770.62
2022-10-18T06:37:48.159Z,101789.53
2022-10-18T06:40:14.670Z,101763.50
2022-10-18T06:42:43.543Z,101791.91
2022-10-18T06:45:11.099Z,101774.44
2022-10-18T06:47:37.394Z,101793.06
2022-10-18T06:50:04.113Z,101787.19
2022-10-18T06:52:30.644Z,101797.62
2022-10-18T06:54:57.107Z,101794.22
2022-10-18T06:57:24.498Z,101781.50
2022-10-18T06:59:52.978Z,101765.28
2022-10-18T07:02:19.209Z,101796.06
2022-10-18T07:04:45.777Z,101797.91
2022-10-18T07:07:12.090Z,101795.34
2022-10-18T07:09:38.499Z,101798.00
2022-10-18T07:12:05.225Z,101793.69
2022-10-18T07:14:31.491Z,101790.09
2022-10-18T07:17:00.932Z,101782.59
2022-10-18T07:19:27.743Z,101788.34
2022-10-18T07:21:54.313Z,101775.16
2022-10-18T07:24:20.650Z,101761.19
2022-10-18T07:26:47.588Z,101782.41
2022-10-18T07:29:14.289Z,101776.53
2022-10-18T07:31:40.986Z,101767.44
2022-10-18T07:34:09.036Z,101768.06
2022-10-18T07:36:35.413Z,101776.94
2022-10-18T07:39:01.728Z,101759.06
2022-10-18T07:41:29.097Z,101771.31
2022-10-18T07:43:55.325Z,101778.72
2022-10-18T07:46:22.999Z,101766.03
2022-10-18T07:48:52.856Z,101776.91
2022-10-18T07:51:20.047Z,101770.81
2022-10-18T07:53:46.612Z,101765.56
2022-10-18T07:56:21.323Z,101770.91
2022-10-18T07:58:52.788Z,101760.22
2022-10-18T08:01:20.909Z,101769.44
2022-10-18T08:03:47.747Z,101766.38
2022-10-18T08:06:18.063Z,101751.09
2022-10-18T08:08:45.051Z,101738.75
2022-10-18T08:11:14.954Z,101758.84
2022-10-18T08:13:41.435Z,101753.59
2022-10-18T08:16:10.065Z,101751.78
2022-10-18T08:18:37.357Z,101749.19
2022-10-18T08:21:05.640Z,101757.69
2022-10-18T08:23:32.135Z,101752.97
2022-10-18T08:26:10.642Z,101747.09
2022-10-18T08:28:37.567Z,101748.81
2022-10-18T08:31:10.329Z,101731.19
2022-10-18T08:33:36.731Z,101741.41
2022-10-18T08:36:05.874Z,101737.69
2022-10-18T08:38:37.573Z,101741.75
2022-10-18T08:41:43.065Z,101746.91
2022-10-18T08:44:21.837Z,101733.94
2022-10-18T08:46:59.691Z,101741.53
2022-10-18T08:49:47.295Z,101740.78
2022-10-18T08:52:32.812Z,101717.16
2022-10-18T08:55:14.396Z,101735.19
2022-10-18T08:57:40.640Z,101714.72
2022-10-18T09:00:17.981Z,101725.44
2022-10-18T09:03:22.043Z,101717.72
2022-10-18T09:05:54.983Z,101719.50
2022-10-18T09:08:37.814Z,101709.88
2022-10-18T09:11:09.055Z,101710.94
2022-10-18T09:13:57.554Z,101721.25
2022-10-18T09:17:01.950Z,101705.13
2022-10-18T09:20:07.674Z,101702.34
2022-10-18T09:22:53.173Z,101707.00
2022-10-18T09:25:28.897Z,101706.38
2022-10-18T09:28:00.980Z,101696.28
2022-10-18T09:31:05.701Z,101702.44
2022-10-18T09:34:01.778Z,101709.34
2022-10-18T09:36:35.680Z,101707.09
2022-10-18T09:39:14.958Z,101699.34
2022-10-18T09:41:55.873Z,101696.28
2022-10-18T09:44:26.293Z,101696.38
2022-10-18T09:47:02.266Z,101693.00
2022-10-18T09:49:37.054Z,101692.16
2022-10-18T09:52:08.604Z,101692.91
2022-10-18T09:54:45.115Z,101686.53
2022-10-18T09:57:16.573Z,101676.25
2022-10-18T09:59:47.022Z,101675.47
2022-10-18T10:02:24.009Z,101657.94
2022-10-18T10:04:51.626Z,101667.53
2022-10-18T10:07:28.616Z,101664.63
2022-10-18T10:10:12.986Z,101663.19
2022-10-18T10:12:40.242Z,101654.47
2022-10-18T10:15:29.576Z,101658.09
2022-10-18T10:18:28.263Z,101654.16
2022-10-18T10:20:57.452Z,101650.41
2022-10-18T10:23:29.794Z,101647.16
2022-10-18T10:26:01.997Z,101640.44
2022-10-18T10:28:46.267Z,101637.81
2022-10-18T10:31:18.777Z,101633.44
2022-10-18T10:33:48.217Z,101616.16
2022-10-18T10:36:20.837Z,101631.22
2022-10-18T10:39:06.415Z,101616.69
2022-10-18T10:41:33.501Z,101599.87
2022-10-18T10:44:02.698Z,101604.03
2022-10-18T10:46:36.500Z,101608.09
2022-10-18T10:49:35.058Z,101601.84
2022-10-18T10:52:08.446Z,101584.34
2022-10-18T10:54:47.555Z,101586.44
2022-10-18T10:57:23.300Z,101585.31
2022-10-18T10:59:55.364Z,101568.84
2022-10-18T11:02:23.151Z,101570.88
2022-10-18T11:04:54.917Z,101575.09
2022-10-18T11:07:38.156Z,101568.44
2022-10-18T11:10:10.776Z,101541.50
2022-10-18T11:12:45.375Z,101562.47
2022-10-18T11:15:12.052Z,101551.22
2022-10-18T11:18:08.414Z,101549.44
2022-10-18T11:20:44.740Z,101544.63
2022-10-18T11:23:12.521Z,101541.78
2022-10-18T11:25:59.932Z,101532.72
2022-10-18T11:28:51.025Z,101526.66
2022-10-18T11:31:31.070Z,101527.66
2022-10-18T11:34:10.337Z,101524.09
2022-10-18T11:37:33.411Z,101520.63
2022-10-18T11:40:04.069Z,101504.56
2022-10-18T11:42:57.346Z,101506.12
2022-10-18T11:45:43.636Z,101479.16
2022-10-18T11:48:28.516Z,101501.59
2022-10-18T11:51:08.451Z,101492.78
2022-10-18T11:54:15.065Z,101485.88
2022-10-18T11:56:49.857Z,101480.03
2022-10-18T11:59:22.450Z,101477.37
2022-10-18T12:02:21.516Z,101471.59
2022-10-18T12:04:58.438Z,101460.09
2022-10-18T12:07:53.826Z,101449.50
2022-10-18T12:10:31.535Z,101454.50
2022-10-18T12:13:08.613Z,101440.87
2022-10-18T12:15:37.854Z,101429.06
2022-10-18T12:18:16.250Z,101441.88
2022-10-18T12:20:51.723Z,101425.81
2022-10-18T12:23:24.830Z,101431.66
2022-10-18T12:25:54.165Z,101420.91
2022-10-18T12:28:29.800Z,101426.13
2022-10-18T12:31:13.593Z,101424.50
2022-10-18T12:33:42.847Z,101417.63
2022-10-18T12:36:21.421Z,101416.94
2022-10-18T12:39:00.076Z,101410.06
2022-10-18T12:41:31.737Z,101413.72
2022-10-18T12:44:04.710Z,101396.75
2022-10-18T12:47:04.533Z,101406.50
2022-10-18T12:49:41.305Z,101403.94
2022-10-18T12:52:28.106Z,101402.25
2022-10-18T12:55:20.775Z,101400.06
2022-10-18T12:57:53.134Z,101390.38
2022-10-18T13:00:31.223Z,101394.62
2022-10-18T13:03:10.216Z,101392.25
2022-10-18T13:05:54.497Z,101387.88
2022-10-18T13:08:27.825Z,101386.53
2022-10-18T13:11:11.782Z,101375.47
2022-10-18T13:13:47.887Z,101373.06
2022-10-18T13:16:23.307Z,101361.31
2022-10-18T13:19:10.612Z,101362.87
2022-10-18T13:22:00.135Z,101371.53
2022-10-18T13:24:40.750Z,101365.13
2022-10-18T13:27:35.448Z,101356.00
2022-10-18T13:30:19.238Z,101350.56
2022-10-18T13:33:17.879Z,101344.84
2022-10-18T13:35:55.355Z,101327.66
2022-10-18T13:38:38.586Z,101347.22
2022-10-18T13:41:14.603Z,101337.19
2022-10-18T13:43:53.254Z,101312.28
2022-10-18T13:46:19.683Z,101330.59
2022-10-18T13:49:17.062Z,101325.28
2022-10-18T13:54:57.368Z,101318.75
2022-10-18T13:57:58.904Z,101319.28
2022-10-18T14:00:36.974Z,101317.06
2022-10-18T14:03:55.477Z,101309.75
2022-10-18T14:06:22.544Z,101312.97
2022-10-18T14:12:25.657Z,101311.03
2022-10-18T14:15:09.915Z,101303.44
2022-10-18T14:17:43.005Z,101302.16
2022-10-18T14:20:18.885Z,101296.03
2022-10-18T14:22:56.588Z,101290.53
2022-10-18T14:25:32.477Z,101287.56
2022-10-18T14:28:18.476Z,101287.97
2022-10-18T14:30:56.338Z,101285.03
2022-10-18T14:33:26.618Z,101287.13
2022-10-18T14:36:05.342Z,101280.97
2022-10-18T14:38:31.624Z,101276.69
2022-10-18T14:41:15.402Z,101279.97
2022-10-18T14:43:42.445Z,101273.25
2022-10-18T14:46:27.232Z,101272.16
2022-10-18T14:48:58.291Z,101273.78
2022-10-18T14:51:25.903Z,101263.69
2022-10-18T14:53:52.975Z,101256.12
2022-10-18T14:56:25.852Z,101256.28
2022-10-18T14:58:53.301Z,101258.06
2022-10-18T15:01:21.874Z,101237.47
2022-10-18T15:03:48.423Z,101243.94
2022-10-18T15:06:19.606Z,101248.44
2022-10-18T15:08:49.435Z,101241.03
2022-10-18T15:11:16.349Z,101217.66
2022-10-18T15:13:48.539Z,101237.41
2022-10-18T15:16:17.985Z,101245.97
2022-10-18T15:18:44.707Z,101235.84
2022-10-18T15:21:24.358Z,101246.69
2022-10-18T15:23:51.496Z,101237.31
2022-10-18T15:26:35.931Z,101243.25
2022-10-18T15:29:04.523Z,101234.31
2022-10-18T15:31:35.784Z,101238.28
2022-10-18T15:34:18.536Z,101236.00
2022-10-18T15:36:45.422Z,101234.66
2022-10-18T15:39:16.725Z,101236.78
2022-10-18T15:41:48.783Z,101239.63
2022-10-18T15:44:22.143Z,101235.41
2022-10-18T15:46:49.562Z,101237.75
2022-10-18T15:49:25.108Z,101243.06
2022-10-18T15:52:32.549Z,101240.25
2022-10-18T15:55:22.663Z,101245.12
2022-10-18T15:57:49.468Z,101244.53
2022-10-18T16:00:20.056Z,101243.13
2022-10-18T16:02:46.661Z,101246.94
2022-10-18T16:05:19.021Z,101247.44
2022-10-18T16:07:45.267Z,101242.53
2022-10-18T16:10:15.258Z,101244.53
2022-10-18T16:12:41.486Z,101250.91
2022-10-18T16:15:08.516Z,101248.78
2022-10-18T16:17:35.364Z,101238.25
2022-10-18T16:20:01.827Z,101245.75
2022-10-18T16:22:28.913Z,101253.69
2022-10-18T16:24:57.603Z,101246.25
2022-10-18T16:27:24.962Z,101250.72
2022-10-18T16:29:51.187Z,101244.25
2022-10-18T16:32:17.699Z,101246.87
2022-10-18T16:34:43.930Z,101223.25
2022-10-18T16:37:10.191Z,101239.88
2022-10-18T16:39:36.844Z,101243.16
2022-10-18T16:42:03.149Z,101228.16
2022-10-18T16:44:29.398Z,101241.75
2022-10-18T16:46:56.446Z,101239.66
2022-10-18T16:49:25.027Z,101229.09
2022-10-18T16:51:55.182Z,101224.25
2022-10-18T16:54:22.291Z,101215.63
2022-10-18T16:56:50.082Z,101235.59
2022-10-18T16:59:23.127Z,101207.69
2022-10-18T17:01:49.692Z,101239.09
2022-10-18T17:04:15.945Z,101221.59
2022-10-18T17:06:42.199Z,101235.81
2022-10-18T17:09:09.296Z,101224.75
2022-10-18T17:11:35.526Z,101224.63
2022-10-18T17:14:01.770Z,101225.91
2022-10-18T17:16:31.192Z,101232.00
2022-10-18T17:18:59.463Z,101221.59
2022-10-18T17:21:27.179Z,101227.28
2022-10-18T17:23:54.082Z,101222.34
2022-10-18T17:26:30.687Z,101215.16
2022-10-18T17:29:03.510Z,101211.50
2022-10-18T17:31:31.070Z,101216.50
2022-10-18T17:33:58.713Z,101220.91
2022-10-18T17:36:25.086Z,101175.53
2022-10-18T17:38:52.180Z,101217.59
2022-10-18T17:41:18.800Z,101216.75
2022-10-18T17:43:45.059Z,101213.97
2022-10-18T17:46:14.451Z,101199.84
2022-10-18T17:48:41.946Z,101213.56
2022-10-18T17:51:09.538Z,101204.13
2022-10-18T17:53:36.178Z,101204.84
2022-10-18T17:56:04.148Z,101196.56
2022-10-18T17:58:31.350Z,101191.78
2022-10-18T18:00:58.074Z,101185.66
2022-10-18T18:03:24.660Z,101189.56
2022-10-18T18:05:50.916Z,101185.25
2022-10-18T18:08:17.113Z,101188.09
2022-10-18T18:10:43.712Z,101180.41
2022-10-18T18:13:09.970Z,101177.78
2022-10-18T18:15:36.250Z,101183.78
2022-10-18T18:18:02.861Z,101163.00
2022-10-18T18:20:29.100Z,101184.69
2022-10-18T18:22:55.353Z,101175.22
2022-10-18T18:25:21.881Z,101167.28
2022-10-18T18:27:48.109Z,101162.25
2022-10-18T18:30:17.619Z,101174.97
2022-10-18T18:32:44.164Z,101169.47
2022-10-18T18:35:10.395Z,101161.06
2022-10-18T18:42:23.668Z,101171.81
2022-10-18T18:44:50.224Z,101154.06
2022-10-18T18:49:47.655Z,101151.50
2022-10-18T18:52:14.169Z,101136.78
2022-10-18T18:54:40.410Z,101154.84
2022-10-18T18:57:06.684Z,101151.28
2022-10-18T18:59:33.285Z,101134.16
2022-10-18T19:01:59.559Z,101153.41
2022-10-18T19:04:25.993Z,101148.25
2022-10-18T19:06:52.497Z,101155.16
2022-10-18T19:09:19.435Z,101149.94
2022-10-18T19:11:46.998Z,101136.16
2022-10-18T19:14:13.858Z,101153.59
2022-10-18T19:16:41.910Z,101162.03
2022-10-18T19:19:13.963Z,101144.53
2022-10-18T19:21:42.832Z,101153.88
2022-10-18T19:24:09.114Z,101149.19
2022-10-18T19:26:45.978Z,101148.19
2022-10-18T19:29:14.104Z,101148.38
2022-10-18T19:31:41.172Z,101149.47
2022-10-18T19:34:09.564Z,101143.50
2022-10-18T19:36:36.462Z,101139.09
2022-10-18T19:39:03.787Z,101145.34
2022-10-18T19:41:30.069Z,101140.09
2022-10-18T19:43:57.190Z,101147.16
2022-10-18T19:46:23.900Z,101150.88
2022-10-18T19:48:50.540Z,101140.69
2022-10-18T19:51:20.888Z,101106.12
2022-10-18T19:53:50.314Z,101127.00
2022-10-18T19:56:19.931Z,101114.53
2022-10-18T19:58:46.333Z,101125.63
2022-10-18T20:01:13.272Z,101128.41
2022-10-18T20:03:39.980Z,101127.81
2022-10-18T20:06:06.281Z,101135.06
2022-10-18T20:08:33.655Z,101127.63
2022-10-18T20:11:01.721Z,101131.56
2022-10-18T20:13:28.195Z,101131.75
2022-10-18T20:15:54.453Z,101130.44
2022-10-18T20:18:21.007Z,101123.69
2022-10-18T20:20:48.369Z,101128.00
2022-10-18T20:23:15.691Z,101129.13
2022-10-18T20:25:42.203Z,101103.16
2022-10-18T20:28:08.477Z,101125.25
2022-10-18T20:30:34.772Z,101114.28
2022-10-18T20:33:01.294Z,101117.25
2022-10-18T20:35:27.571Z,101109.81
2022-10-18T20:37:53.811Z,101108.59
2022-10-18T20:40:20.366Z,101092.81
2022-10-18T20:42:46.635Z,101112.50
2022-10-18T20:45:12.872Z,101094.13
2022-10-18T20:47:39.439Z,101112.09
2022-10-18T20:50:05.951Z,101117.41
2022-10-18T20:52:32.192Z,101111.69
2022-10-18T20:54:58.743Z,101106.81
2022-10-18T20:57:25.024Z,101099.62
2022-10-18T20:59:51.254Z,101091.19
2022-10-18T21:02:17.836Z,101094.81
2022-10-18T21:04:44.055Z,101088.53
2022-10-18T21:07:10.285Z,101082.09
2022-10-18T21:09:36.811Z,101088.94
2022-10-18T21:12:03.119Z,101081.81
2022-10-18T21:14:29.450Z,101075.84
2022-10-18T21:16:55.972Z,101076.22
2022-10-18T21:19:27.075Z,101062.69
2022-10-18T21:21:55.898Z,101061.88
2022-10-18T21:24:23.974Z,101053.22
2022-10-18T21:26:50.583Z,101056.03
2022-10-18T21:29:21.884Z,101055.47
2022-10-18T21:31:49.782Z,101062.00
2022-10-18T21:34:17.461Z,101051.97
2022-10-18T21:36:46.928Z,101050.25
2022-10-18T21:39:18.858Z,101065.09
2022-10-18T21:41:45.721Z,101058.44
2022-10-18T21:44:12.547Z,101046.38
2022-10-18T21:46:40.013Z,101050.91
2022-10-18T21:49:07.208Z,101042.84
2022-10-18T21:51:33.446Z,101045.31
2022-10-18T21:54:00.006Z,101045.31
2022-10-18T21:56:34.117Z,101035.22
2022-10-18T21:59:01.319Z,101038.28
2022-10-18T22:01:38.427Z,101030.37
2022-10-18T22:04:07.288Z,101028.41
2022-10-18T22:09:08.284Z,101021.94
2022-10-18T22:11:46.519Z,101033.28
2022-10-18T22:14:13.185Z,101029.53
2022-10-18T22:16:39.411Z,101001.91
2022-10-18T22:19:06.615Z,101008.72
2022-10-18T22:21:33.603Z,101001.16
2022-10-18T22:24:00.067Z,101004.00
2022-10-18T22:26:31.288Z,100997.84
2022-10-18T22:29:00.203Z,100995.31
2022-10-18T22:31:29.003Z,100997.94
2022-10-18T22:33:57.266Z,100985.47
2022-10-18T22:36:24.511Z,101000.72
2022-10-18T22:38:50.750Z,100997.53
2022-10-18T22:41:17.317Z,100995.25
2022-10-18T22:43:43.819Z,101000.50
2022-10-18T22:46:12.630Z,100994.62
2022-10-18T22:48:39.274Z,100985.34
2022-10-18T22:51:06.515Z,100963.34
2022-10-18T22:53:33.471Z,100991.78
2022-10-18T22:55:59.834Z,100986.78
2022-10-18T22:58:26.390Z,100987.22
2022-10-18T23:01:07.399Z,100985.69
2022-10-18T23:03:34.169Z,100973.16
2022-10-18T23:06:00.430Z,100990.94
2022-10-18T23:08:27.210Z,100975.78
2022-10-18T23:10:55.844Z,100980.00
2022-10-18T23:13:22.985Z,100974.34
2022-10-18T23:15:49.396Z,100979.25
2022-10-18T23:18:17.567Z,100968.25
2022-10-18T23:20:44.635Z,100962.84
2022-10-18T23:23:11.604Z,100950.03
2022-10-18T23:25:38.214Z,100965.47
2022-10-18T23:28:05.344Z,100969.03
2022-10-18T23:30:31.893Z,100961.50
2022-10-18T23:32:58.410Z,100968.69
2022-10-18T23:35:24.668Z,100958.91
2022-10-18T23:37:51.744Z,100954.84
2022-10-18T23:40:18.279Z,100971.91
2022-10-18T23:42:44.528Z,100978.31
2022-10-18T23:45:10.949Z,100972.41
2022-10-18T23:47:37.447Z,100976.31
2022-10-18T23:50:04.270Z,100986.91
2022-10-18T23:52:30.511Z,100987.09
2022-10-18T23:54:57.050Z,100982.09
2022-10-18T23:57:23.331Z,100980.66
2022-10-18T23:59:49.584Z,100980.66
